sensor_id;sensor_type;location;lat;lon;timestamp;P1;durP1;ratioP1;P2;durP2;ratioP2
41709;SDS011;59402;48.396;-4.472;2023-04-24T00:00:23;9.82;;;3.78;;
41709;SDS011;59402;48.396;-4.472;2023-04-24T00:02:48;8.52;;;4.03;;
41709;SDS011;59402;48.396;-4.472;2023-04-24T00:05:15;9.45;;;4.20;;
41709;SDS011;59402;48.396;-4.472;2023-04-24T00:07:42;9.37;;;4.17;;
41709;SDS011;59402;48.396;-4.472;2023-04-24T00:10:09;14.00;;;5.40;;
41709;SDS011;59402;48.396;-4.472;2023-04-24T00:12:35;10.57;;;4.30;;
41709;SDS011;59402;48.396;-4.472;2023-04-24T00:15:02;12.90;;;4.82;;
41709;SDS011;59402;48.396;-4.472;2023-04-24T00:17:27;12.98;;;4.63;;
41709;SDS011;59402;48.396;-4.472;2023-04-24T00:19:53;11.60;;;5.13;;
41709;SDS011;59402;48.396;-4.472;2023-04-24T00:22:26;11.32;;;4.90;;
41709;SDS011;59402;48.396;-4.472;2023-04-24T00:24:52;8.43;;;4.53;;
41709;SDS011;59402;48.396;-4.472;2023-04-24T00:27:18;16.60;;;7.32;;
41709;SDS011;59402;48.396;-4.472;2023-04-24T00:29:44;26.23;;;12.40;;
41709;SDS011;59402;48.396;-4.472;2023-04-24T00:32:10;19.20;;;9.13;;
41709;SDS011;59402;48.396;-4.472;2023-04-24T00:34:36;11.77;;;6.63;;
41709;SDS011;59402;48.396;-4.472;2023-04-24T00:37:02;14.05;;;6.03;;
41709;SDS011;59402;48.396;-4.472;2023-04-24T00:39:28;14.00;;;4.68;;
41709;SDS011;59402;48.396;-4.472;2023-04-24T00:41:53;10.05;;;4.80;;
41709;SDS011;59402;48.396;-4.472;2023-04-24T00:44:20;11.05;;;3.80;;
41709;SDS011;59402;48.396;-4.472;2023-04-24T00:46:46;9.93;;;4.32;;
41709;SDS011;59402;48.396;-4.472;2023-04-24T00:49:17;9.70;;;3.90;;
41709;SDS011;59402;48.396;-4.472;2023-04-24T00:51:43;10.85;;;3.67;;
41709;SDS011;59402;48.396;-4.472;2023-04-24T00:54:11;8.13;;;3.58;;
41709;SDS011;59402;48.396;-4.472;2023-04-24T00:56:37;10.10;;;4.20;;
41709;SDS011;59402;48.396;-4.472;2023-04-24T00:59:03;14.63;;;4.72;;
41709;SDS011;59402;48.396;-4.472;2023-04-24T01:01:30;12.35;;;4.63;;
41709;SDS011;59402;48.396;-4.472;2023-04-24T01:03:55;10.55;;;4.70;;
41709;SDS011;59402;48.396;-4.472;2023-04-24T01:06:21;8.52;;;4.35;;
41709;SDS011;59402;48.396;-4.472;2023-04-24T01:08:47;9.57;;;4.30;;
41709;SDS011;59402;48.396;-4.472;2023-04-24T01:11:14;9.73;;;4.40;;
41709;SDS011;59402;48.396;-4.472;2023-04-24T01:13:40;13.38;;;4.90;;
41709;SDS011;59402;48.396;-4.472;2023-04-24T01:16:06;8.63;;;3.88;;
41709;SDS011;59402;48.396;-4.472;2023-04-24T01:18:33;10.27;;;4.20;;
41709;SDS011;59402;48.396;-4.472;2023-04-24T01:20:59;11.02;;;4.43;;
41709;SDS011;59402;48.396;-4.472;2023-04-24T01:23:25;9.95;;;4.68;;
41709;SDS011;59402;48.396;-4.472;2023-04-24T01:25:51;12.50;;;4.65;;
41709;SDS011;59402;48.396;-4.472;2023-04-24T01:28:17;11.30;;;4.40;;
41709;SDS011;59402;48.396;-4.472;2023-04-24T01:30:43;12.75;;;4.97;;
41709;SDS011;59402;48.396;-4.472;2023-04-24T01:33:10;13.68;;;5.00;;
41709;SDS011;59402;48.396;-4.472;2023-04-24T01:35:36;11.52;;;4.60;;
41709;SDS011;59402;48.396;-4.472;2023-04-24T01:38:02;9.60;;;4.23;;
41709;SDS011;59402;48.396;-4.472;2023-04-24T01:40:28;17.33;;;5.50;;
41709;SDS011;59402;48.396;-4.472;2023-04-24T01:42:57;15.95;;;5.10;;
41709;SDS011;59402;48.396;-4.472;2023-04-24T01:45:23;17.05;;;4.75;;
41709;SDS011;59402;48.396;-4.472;2023-04-24T01:47:49;17.10;;;5.00;;
41709;SDS011;59402;48.396;-4.472;2023-04-24T01:50:16;12.02;;;4.18;;
41709;SDS011;59402;48.396;-4.472;2023-04-24T01:52:42;17.92;;;5.18;;
41709;SDS011;59402;48.396;-4.472;2023-04-24T01:55:08;19.77;;;5.05;;
41709;SDS011;59402;48.396;-4.472;2023-04-24T01:57:34;18.13;;;4.40;;
41709;SDS011;59402;48.396;-4.472;2023-04-24T02:00:00;16.63;;;4.57;;
41709;SDS011;59402;48.396;-4.472;2023-04-24T02:02:41;15.45;;;4.82;;
41709;SDS011;59402;48.396;-4.472;2023-04-24T02:05:07;14.52;;;4.35;;
41709;SDS011;59402;48.396;-4.472;2023-04-24T02:07:35;21.60;;;4.45;;
41709;SDS011;59402;48.396;-4.472;2023-04-24T02:10:01;13.82;;;4.38;;
41709;SDS011;59402;48.396;-4.472;2023-04-24T02:12:27;14.75;;;4.65;;
41709;SDS011;59402;48.396;-4.472;2023-04-24T02:14:52;20.27;;;4.88;;
41709;SDS011;59402;48.396;-4.472;2023-04-24T02:17:18;18.02;;;4.22;;
41709;SDS011;59402;48.396;-4.472;2023-04-24T02:19:44;24.52;;;5.15;;
41709;SDS011;59402;48.396;-4.472;2023-04-24T02:22:11;19.90;;;4.50;;
41709;SDS011;59402;48.396;-4.472;2023-04-24T02:24:37;15.88;;;4.65;;
41709;SDS011;59402;48.396;-4.472;2023-04-24T02:27:03;17.48;;;6.05;;
41709;SDS011;59402;48.396;-4.472;2023-04-24T02:29:28;17.20;;;4.45;;
41709;SDS011;59402;48.396;-4.472;2023-04-24T02:31:54;19.75;;;5.05;;
41709;SDS011;59402;48.396;-4.472;2023-04-24T02:34:20;16.50;;;4.68;;
41709;SDS011;59402;48.396;-4.472;2023-04-24T02:36:46;15.40;;;4.60;;
41709;SDS011;59402;48.396;-4.472;2023-04-24T02:39:13;17.48;;;4.22;;
41709;SDS011;59402;48.396;-4.472;2023-04-24T02:44:07;20.25;;;4.88;;
41709;SDS011;59402;48.396;-4.472;2023-04-24T02:46:33;12.20;;;4.53;;
41709;SDS011;59402;48.396;-4.472;2023-04-24T02:48:59;20.05;;;4.72;;
41709;SDS011;59402;48.396;-4.472;2023-04-24T02:51:25;20.73;;;5.70;;
41709;SDS011;59402;48.396;-4.472;2023-04-24T02:53:52;14.68;;;4.32;;
41709;SDS011;59402;48.396;-4.472;2023-04-24T02:56:18;17.08;;;5.40;;
41709;SDS011;59402;48.396;-4.472;2023-04-24T02:58:43;21.85;;;4.72;;
41709;SDS011;59402;48.396;-4.472;2023-04-24T03:01:09;23.92;;;5.13;;
41709;SDS011;59402;48.396;-4.472;2023-04-24T03:03:35;19.60;;;4.93;;
41709;SDS011;59402;48.396;-4.472;2023-04-24T03:06:02;21.92;;;4.97;;
41709;SDS011;59402;48.396;-4.472;2023-04-24T03:08:27;19.05;;;5.15;;
41709;SDS011;59402;48.396;-4.472;2023-04-24T03:10:53;16.30;;;4.38;;
41709;SDS011;59402;48.396;-4.472;2023-04-24T03:13:19;18.35;;;4.78;;
41709;SDS011;59402;48.396;-4.472;2023-04-24T03:15:44;23.25;;;4.97;;
41709;SDS011;59402;48.396;-4.472;2023-04-24T03:18:11;18.98;;;4.80;;
41709;SDS011;59402;48.396;-4.472;2023-04-24T03:20:38;20.83;;;4.50;;
41709;SDS011;59402;48.396;-4.472;2023-04-24T03:23:03;17.67;;;4.85;;
41709;SDS011;59402;48.396;-4.472;2023-04-24T03:25:29;18.75;;;4.82;;
41709;SDS011;59402;48.396;-4.472;2023-04-24T03:27:55;17.77;;;4.53;;
41709;SDS011;59402;48.396;-4.472;2023-04-24T03:30:37;21.10;;;5.25;;
41709;SDS011;59402;48.396;-4.472;2023-04-24T03:33:03;18.65;;;4.03;;
41709;SDS011;59402;48.396;-4.472;2023-04-24T03:35:33;16.25;;;3.85;;
41709;SDS011;59402;48.396;-4.472;2023-04-24T03:38:02;16.83;;;3.80;;
41709;SDS011;59402;48.396;-4.472;2023-04-24T03:40:41;22.85;;;4.72;;
41709;SDS011;59402;48.396;-4.472;2023-04-24T03:43:27;15.75;;;3.97;;
41709;SDS011;59402;48.396;-4.472;2023-04-24T03:45:54;17.48;;;4.00;;
41709;SDS011;59402;48.396;-4.472;2023-04-24T03:48:20;19.65;;;4.35;;
41709;SDS011;59402;48.396;-4.472;2023-04-24T03:50:46;18.52;;;4.28;;
41709;SDS011;59402;48.396;-4.472;2023-04-24T03:53:12;17.35;;;3.90;;
41709;SDS011;59402;48.396;-4.472;2023-04-24T03:55:40;17.40;;;4.18;;
41709;SDS011;59402;48.396;-4.472;2023-04-24T03:58:06;16.00;;;4.57;;
41709;SDS011;59402;48.396;-4.472;2023-04-24T04:00:31;16.33;;;3.63;;
41709;SDS011;59402;48.396;-4.472;2023-04-24T04:03:18;21.10;;;4.43;;
41709;SDS011;59402;48.396;-4.472;2023-04-24T04:05:43;14.85;;;3.80;;
41709;SDS011;59402;48.396;-4.472;2023-04-24T04:08:09;18.20;;;3.95;;
41709;SDS011;59402;48.396;-4.472;2023-04-24T04:10:35;17.20;;;3.78;;
41709;SDS011;59402;48.396;-4.472;2023-04-24T04:13:03;19.13;;;4.72;;
41709;SDS011;59402;48.396;-4.472;2023-04-24T04:15:29;17.00;;;3.88;;
41709;SDS011;59402;48.396;-4.472;2023-04-24T04:17:55;17.30;;;4.10;;
41709;SDS011;59402;48.396;-4.472;2023-04-24T04:20:22;16.52;;;4.78;;
41709;SDS011;59402;48.396;-4.472;2023-04-24T04:22:48;19.42;;;5.32;;
41709;SDS011;59402;48.396;-4.472;2023-04-24T04:25:19;20.55;;;4.30;;
41709;SDS011;59402;48.396;-4.472;2023-04-24T04:27:45;14.98;;;3.90;;
41709;SDS011;59402;48.396;-4.472;2023-04-24T04:30:13;23.27;;;4.30;;
41709;SDS011;59402;48.396;-4.472;2023-04-24T04:32:54;17.20;;;4.00;;
41709;SDS011;59402;48.396;-4.472;2023-04-24T04:35:20;18.00;;;3.90;;
41709;SDS011;59402;48.396;-4.472;2023-04-24T04:37:46;15.90;;;4.13;;
41709;SDS011;59402;48.396;-4.472;2023-04-24T04:40:32;19.50;;;4.25;;
41709;SDS011;59402;48.396;-4.472;2023-04-24T04:43:02;17.83;;;3.85;;
41709;SDS011;59402;48.396;-4.472;2023-04-24T04:45:33;16.65;;;4.10;;
41709;SDS011;59402;48.396;-4.472;2023-04-24T04:48:22;20.13;;;4.20;;
41709;SDS011;59402;48.396;-4.472;2023-04-24T04:50:48;15.90;;;3.60;;
41709;SDS011;59402;48.396;-4.472;2023-04-24T04:53:15;13.85;;;4.18;;
41709;SDS011;59402;48.396;-4.472;2023-04-24T04:55:41;16.40;;;4.75;;
41709;SDS011;59402;48.396;-4.472;2023-04-24T04:58:13;19.92;;;4.50;;
41709;SDS011;59402;48.396;-4.472;2023-04-24T05:00:39;16.15;;;4.72;;
41709;SDS011;59402;48.396;-4.472;2023-04-24T05:03:13;18.33;;;4.35;;
41709;SDS011;59402;48.396;-4.472;2023-04-24T05:05:39;12.32;;;3.90;;
41709;SDS011;59402;48.396;-4.472;2023-04-24T05:08:08;15.57;;;4.20;;
41709;SDS011;59402;48.396;-4.472;2023-04-24T05:10:35;13.95;;;4.10;;
41709;SDS011;59402;48.396;-4.472;2023-04-24T05:13:02;22.20;;;5.50;;
41709;SDS011;59402;48.396;-4.472;2023-04-24T05:17:56;10.63;;;3.53;;
41709;SDS011;59402;48.396;-4.472;2023-04-24T05:20:23;17.35;;;4.13;;
41709;SDS011;59402;48.396;-4.472;2023-04-24T05:22:49;14.88;;;4.28;;
41709;SDS011;59402;48.396;-4.472;2023-04-24T05:25:16;19.90;;;4.47;;
41709;SDS011;59402;48.396;-4.472;2023-04-24T05:27:48;15.43;;;4.28;;
41709;SDS011;59402;48.396;-4.472;2023-04-24T05:30:16;16.77;;;4.30;;
41709;SDS011;59402;48.396;-4.472;2023-04-24T05:32:42;20.25;;;4.47;;
41709;SDS011;59402;48.396;-4.472;2023-04-24T05:35:08;14.57;;;4.18;;
41709;SDS011;59402;48.396;-4.472;2023-04-24T05:37:34;14.83;;;4.33;;
41709;SDS011;59402;48.396;-4.472;2023-04-24T05:40:00;13.23;;;4.07;;
41709;SDS011;59402;48.396;-4.472;2023-04-24T05:42:26;20.20;;;3.90;;
41709;SDS011;59402;48.396;-4.472;2023-04-24T05:44:52;19.58;;;4.32;;
41709;SDS011;59402;48.396;-4.472;2023-04-24T05:47:19;13.88;;;4.07;;
41709;SDS011;59402;48.396;-4.472;2023-04-24T05:49:47;13.93;;;3.92;;
41709;SDS011;59402;48.396;-4.472;2023-04-24T05:52:13;18.77;;;4.07;;
41709;SDS011;59402;48.396;-4.472;2023-04-24T05:54:40;13.52;;;3.90;;
41709;SDS011;59402;48.396;-4.472;2023-04-24T05:57:06;16.98;;;4.15;;
41709;SDS011;59402;48.396;-4.472;2023-04-24T05:59:51;17.38;;;3.95;;
41709;SDS011;59402;48.396;-4.472;2023-04-24T06:02:18;12.90;;;3.78;;
41709;SDS011;59402;48.396;-4.472;2023-04-24T06:04:44;15.45;;;4.63;;
41709;SDS011;59402;48.396;-4.472;2023-04-24T06:07:10;16.73;;;3.67;;
41709;SDS011;59402;48.396;-4.472;2023-04-24T06:09:37;19.38;;;4.07;;
41709;SDS011;59402;48.396;-4.472;2023-04-24T06:12:03;13.52;;;2.95;;
41709;SDS011;59402;48.396;-4.472;2023-04-24T06:14:43;13.45;;;3.88;;
41709;SDS011;59402;48.396;-4.472;2023-04-24T06:17:16;15.38;;;3.80;;
41709;SDS011;59402;48.396;-4.472;2023-04-24T06:19:42;18.33;;;4.32;;
41709;SDS011;59402;48.396;-4.472;2023-04-24T06:22:08;20.88;;;4.75;;
41709;SDS011;59402;48.396;-4.472;2023-04-24T06:24:34;18.58;;;4.70;;
41709;SDS011;59402;48.396;-4.472;2023-04-24T06:27:00;16.08;;;3.78;;
41709;SDS011;59402;48.396;-4.472;2023-04-24T06:29:26;20.55;;;5.05;;
41709;SDS011;59402;48.396;-4.472;2023-04-24T06:31:52;14.13;;;3.95;;
41709;SDS011;59402;48.396;-4.472;2023-04-24T06:34:18;23.90;;;4.03;;
41709;SDS011;59402;48.396;-4.472;2023-04-24T06:36:46;16.77;;;4.18;;
41709;SDS011;59402;48.396;-4.472;2023-04-24T06:39:12;16.75;;;3.58;;
41709;SDS011;59402;48.396;-4.472;2023-04-24T06:41:37;16.67;;;4.00;;
41709;SDS011;59402;48.396;-4.472;2023-04-24T06:44:05;15.35;;;4.22;;
41709;SDS011;59402;48.396;-4.472;2023-04-24T06:46:30;15.73;;;4.00;;
41709;SDS011;59402;48.396;-4.472;2023-04-24T06:48:56;12.75;;;3.83;;
41709;SDS011;59402;48.396;-4.472;2023-04-24T06:51:22;17.10;;;4.43;;
41709;SDS011;59402;48.396;-4.472;2023-04-24T06:53:49;20.35;;;4.38;;
41709;SDS011;59402;48.396;-4.472;2023-04-24T06:56:15;18.90;;;3.53;;
41709;SDS011;59402;48.396;-4.472;2023-04-24T06:58:41;14.55;;;4.10;;
41709;SDS011;59402;48.396;-4.472;2023-04-24T07:01:07;12.68;;;3.33;;
41709;SDS011;59402;48.396;-4.472;2023-04-24T07:03:32;15.73;;;3.90;;
41709;SDS011;59402;48.396;-4.472;2023-04-24T07:05:58;18.77;;;4.00;;
41709;SDS011;59402;48.396;-4.472;2023-04-24T07:08:24;12.32;;;3.55;;
41709;SDS011;59402;48.396;-4.472;2023-04-24T07:10:50;21.45;;;4.82;;
41709;SDS011;59402;48.396;-4.472;2023-04-24T07:13:16;15.27;;;3.88;;
41709;SDS011;59402;48.396;-4.472;2023-04-24T07:15:42;20.42;;;5.35;;
41709;SDS011;59402;48.396;-4.472;2023-04-24T07:18:08;17.52;;;3.67;;
41709;SDS011;59402;48.396;-4.472;2023-04-24T07:20:34;17.58;;;4.82;;
41709;SDS011;59402;48.396;-4.472;2023-04-24T07:23:00;14.48;;;4.15;;
41709;SDS011;59402;48.396;-4.472;2023-04-24T07:25:26;14.48;;;3.58;;
41709;SDS011;59402;48.396;-4.472;2023-04-24T07:27:52;18.55;;;4.18;;
41709;SDS011;59402;48.396;-4.472;2023-04-24T07:30:18;17.92;;;3.80;;
41709;SDS011;59402;48.396;-4.472;2023-04-24T07:32:44;14.75;;;3.65;;
41709;SDS011;59402;48.396;-4.472;2023-04-24T07:35:09;16.45;;;3.97;;
41709;SDS011;59402;48.396;-4.472;2023-04-24T07:37:35;17.13;;;3.88;;
41709;SDS011;59402;48.396;-4.472;2023-04-24T07:40:01;14.63;;;3.55;;
41709;SDS011;59402;48.396;-4.472;2023-04-24T07:42:27;17.52;;;3.85;;
41709;SDS011;59402;48.396;-4.472;2023-04-24T07:44:55;18.50;;;3.50;;
41709;SDS011;59402;48.396;-4.472;2023-04-24T07:47:21;20.20;;;3.75;;
41709;SDS011;59402;48.396;-4.472;2023-04-24T07:49:47;11.32;;;3.20;;
41709;SDS011;59402;48.396;-4.472;2023-04-24T07:52:12;13.02;;;3.40;;
41709;SDS011;59402;48.396;-4.472;2023-04-24T07:54:38;15.75;;;3.35;;
41709;SDS011;59402;48.396;-4.472;2023-04-24T07:57:04;15.75;;;4.15;;
41709;SDS011;59402;48.396;-4.472;2023-04-24T07:59:31;15.80;;;3.88;;
41709;SDS011;59402;48.396;-4.472;2023-04-24T08:01:57;15.10;;;3.40;;
41709;SDS011;59402;48.396;-4.472;2023-04-24T08:04:23;18.58;;;3.67;;
41709;SDS011;59402;48.396;-4.472;2023-04-24T08:06:48;15.40;;;3.50;;
41709;SDS011;59402;48.396;-4.472;2023-04-24T08:09:15;14.68;;;3.55;;
41709;SDS011;59402;48.396;-4.472;2023-04-24T08:11:40;18.85;;;3.75;;
41709;SDS011;59402;48.396;-4.472;2023-04-24T08:14:06;18.10;;;4.25;;
41709;SDS011;59402;48.396;-4.472;2023-04-24T08:16:32;30.08;;;4.95;;
41709;SDS011;59402;48.396;-4.472;2023-04-24T08:18:58;20.73;;;3.67;;
41709;SDS011;59402;48.396;-4.472;2023-04-24T08:21:24;17.23;;;3.63;;
41709;SDS011;59402;48.396;-4.472;2023-04-24T08:23:52;15.93;;;3.92;;
41709;SDS011;59402;48.396;-4.472;2023-04-24T08:26:18;12.93;;;3.47;;
41709;SDS011;59402;48.396;-4.472;2023-04-24T08:28:43;15.13;;;3.60;;
41709;SDS011;59402;48.396;-4.472;2023-04-24T08:31:09;19.13;;;3.38;;
41709;SDS011;59402;48.396;-4.472;2023-04-24T08:33:35;12.90;;;3.10;;
41709;SDS011;59402;48.396;-4.472;2023-04-24T08:36:04;12.63;;;3.33;;
41709;SDS011;59402;48.396;-4.472;2023-04-24T08:38:30;16.35;;;3.50;;
41709;SDS011;59402;48.396;-4.472;2023-04-24T08:40:58;12.32;;;2.90;;
41709;SDS011;59402;48.396;-4.472;2023-04-24T08:43:24;15.98;;;3.35;;
41709;SDS011;59402;48.396;-4.472;2023-04-24T08:45:51;14.60;;;3.13;;
41709;SDS011;59402;48.396;-4.472;2023-04-24T08:48:18;16.20;;;3.33;;
41709;SDS011;59402;48.396;-4.472;2023-04-24T08:50:43;17.00;;;2.92;;
41709;SDS011;59402;48.396;-4.472;2023-04-24T08:53:10;10.07;;;2.60;;
41709;SDS011;59402;48.396;-4.472;2023-04-24T08:55:36;17.38;;;3.40;;
41709;SDS011;59402;48.396;-4.472;2023-04-24T08:58:03;15.93;;;3.47;;
41709;SDS011;59402;48.396;-4.472;2023-04-24T09:00:29;16.77;;;2.90;;
41709;SDS011;59402;48.396;-4.472;2023-04-24T09:02:55;12.65;;;3.22;;
41709;SDS011;59402;48.396;-4.472;2023-04-24T09:05:21;11.43;;;3.05;;
41709;SDS011;59402;48.396;-4.472;2023-04-24T09:07:54;17.77;;;3.78;;
41709;SDS011;59402;48.396;-4.472;2023-04-24T09:10:21;13.57;;;3.38;;
41709;SDS011;59402;48.396;-4.472;2023-04-24T09:12:49;15.40;;;3.22;;
41709;SDS011;59402;48.396;-4.472;2023-04-24T09:15:17;16.05;;;3.53;;
41709;SDS011;59402;48.396;-4.472;2023-04-24T09:17:44;15.10;;;3.67;;
41709;SDS011;59402;48.396;-4.472;2023-04-24T09:20:10;14.40;;;2.83;;
41709;SDS011;59402;48.396;-4.472;2023-04-24T09:22:36;13.60;;;2.60;;
41709;SDS011;59402;48.396;-4.472;2023-04-24T09:25:02;13.10;;;3.17;;
41709;SDS011;59402;48.396;-4.472;2023-04-24T09:27:30;16.80;;;2.90;;
41709;SDS011;59402;48.396;-4.472;2023-04-24T09:29:57;10.93;;;2.50;;
41709;SDS011;59402;48.396;-4.472;2023-04-24T09:32:23;12.25;;;3.15;;
41709;SDS011;59402;48.396;-4.472;2023-04-24T09:35:10;20.13;;;3.50;;
41709;SDS011;59402;48.396;-4.472;2023-04-24T09:37:41;16.05;;;3.28;;
41709;SDS011;59402;48.396;-4.472;2023-04-24T09:42:59;16.75;;;3.92;;
41709;SDS011;59402;48.396;-4.472;2023-04-24T09:45:28;16.40;;;3.15;;
41709;SDS011;59402;48.396;-4.472;2023-04-24T09:48:04;17.88;;;3.28;;
41709;SDS011;59402;48.396;-4.472;2023-04-24T09:50:31;10.65;;;2.75;;
41709;SDS011;59402;48.396;-4.472;2023-04-24T09:53:01;14.05;;;2.90;;
41709;SDS011;59402;48.396;-4.472;2023-04-24T09:55:27;16.30;;;3.17;;
41709;SDS011;59402;48.396;-4.472;2023-04-24T09:57:54;11.48;;;2.85;;
41709;SDS011;59402;48.396;-4.472;2023-04-24T10:00:25;12.43;;;3.38;;
41709;SDS011;59402;48.396;-4.472;2023-04-24T10:02:58;13.48;;;3.10;;
41709;SDS011;59402;48.396;-4.472;2023-04-24T10:05:37;12.55;;;2.63;;
41709;SDS011;59402;48.396;-4.472;2023-04-24T10:08:05;11.13;;;3.00;;
41709;SDS011;59402;48.396;-4.472;2023-04-24T10:10:33;12.02;;;2.80;;
41709;SDS011;59402;48.396;-4.472;2023-04-24T10:13:04;11.68;;;2.45;;
41709;SDS011;59402;48.396;-4.472;2023-04-24T10:15:30;9.32;;;2.05;;
41709;SDS011;59402;48.396;-4.472;2023-04-24T10:17:57;11.63;;;2.58;;
41709;SDS011;59402;48.396;-4.472;2023-04-24T10:20:27;13.75;;;2.65;;
41709;SDS011;59402;48.396;-4.472;2023-04-24T10:22:55;10.82;;;2.13;;
41709;SDS011;59402;48.396;-4.472;2023-04-24T10:25:26;10.57;;;2.55;;
41709;SDS011;59402;48.396;-4.472;2023-04-24T10:27:55;9.52;;;2.15;;
41709;SDS011;59402;48.396;-4.472;2023-04-24T10:30:26;10.45;;;2.55;;
41709;SDS011;59402;48.396;-4.472;2023-04-24T10:32:52;11.50;;;2.45;;
41709;SDS011;59402;48.396;-4.472;2023-04-24T10:35:19;10.45;;;2.53;;
41709;SDS011;59402;48.396;-4.472;2023-04-24T10:38:03;12.10;;;2.58;;
41709;SDS011;59402;48.396;-4.472;2023-04-24T10:40:37;11.38;;;2.72;;
41709;SDS011;59402;48.396;-4.472;2023-04-24T10:43:04;8.40;;;2.25;;
41709;SDS011;59402;48.396;-4.472;2023-04-24T10:45:36;8.52;;;2.80;;
41709;SDS011;59402;48.396;-4.472;2023-04-24T10:48:06;10.15;;;2.40;;
41709;SDS011;59402;48.396;-4.472;2023-04-24T10:50:52;10.50;;;2.75;;
41709;SDS011;59402;48.396;-4.472;2023-04-24T10:53:18;10.73;;;2.92;;
41709;SDS011;59402;48.396;-4.472;2023-04-24T10:55:49;14.50;;;3.67;;
41709;SDS011;59402;48.396;-4.472;2023-04-24T10:58:16;9.68;;;2.72;;
41709;SDS011;59402;48.396;-4.472;2023-04-24T11:00:55;13.82;;;2.97;;
41709;SDS011;59402;48.396;-4.472;2023-04-24T11:03:25;12.95;;;2.67;;
41709;SDS011;59402;48.396;-4.472;2023-04-24T11:08:21;11.02;;;3.30;;
41709;SDS011;59402;48.396;-4.472;2023-04-24T11:13:21;12.18;;;3.13;;
41709;SDS011;59402;48.396;-4.472;2023-04-24T11:18:39;10.93;;;2.55;;
41709;SDS011;59402;48.396;-4.472;2023-04-24T11:21:12;12.18;;;2.88;;
41709;SDS011;59402;48.396;-4.472;2023-04-24T11:23:38;12.60;;;3.05;;
41709;SDS011;59402;48.396;-4.472;2023-04-24T11:26:11;12.53;;;2.40;;
41709;SDS011;59402;48.396;-4.472;2023-04-24T11:28:48;8.63;;;2.50;;
41709;SDS011;59402;48.396;-4.472;2023-04-24T11:34:11;9.65;;;2.35;;
41709;SDS011;59402;48.396;-4.472;2023-04-24T11:36:38;9.85;;;2.63;;
41709;SDS011;59402;48.396;-4.472;2023-04-24T11:39:05;13.32;;;2.67;;
41709;SDS011;59402;48.396;-4.472;2023-04-24T11:41:31;11.85;;;3.22;;
41709;SDS011;59402;48.396;-4.472;2023-04-24T11:43:58;8.88;;;2.35;;
41709;SDS011;59402;48.396;-4.472;2023-04-24T11:46:27;9.80;;;2.42;;
41709;SDS011;59402;48.396;-4.472;2023-04-24T11:48:53;11.35;;;2.60;;
41709;SDS011;59402;48.396;-4.472;2023-04-24T11:51:19;9.23;;;2.10;;
41709;SDS011;59402;48.396;-4.472;2023-04-24T11:53:45;15.07;;;2.97;;
41709;SDS011;59402;48.396;-4.472;2023-04-24T11:56:11;12.43;;;2.97;;
41709;SDS011;59402;48.396;-4.472;2023-04-24T11:58:40;11.25;;;2.72;;
41709;SDS011;59402;48.396;-4.472;2023-04-24T12:01:05;11.70;;;2.25;;
41709;SDS011;59402;48.396;-4.472;2023-04-24T12:03:31;10.27;;;2.78;;
41709;SDS011;59402;48.396;-4.472;2023-04-24T12:06:06;8.77;;;2.15;;
41709;SDS011;59402;48.396;-4.472;2023-04-24T12:08:33;9.93;;;2.08;;
41709;SDS011;59402;48.396;-4.472;2023-04-24T12:11:06;8.73;;;2.35;;
41709;SDS011;59402;48.396;-4.472;2023-04-24T12:13:32;13.65;;;2.78;;
41709;SDS011;59402;48.396;-4.472;2023-04-24T12:15:59;10.77;;;2.33;;
41709;SDS011;59402;48.396;-4.472;2023-04-24T12:20:52;11.70;;;2.78;;
41709;SDS011;59402;48.396;-4.472;2023-04-24T12:23:33;10.05;;;2.65;;
41709;SDS011;59402;48.396;-4.472;2023-04-24T12:26:01;12.13;;;2.25;;
41709;SDS011;59402;48.396;-4.472;2023-04-24T12:28:34;11.10;;;2.42;;
41709;SDS011;59402;48.396;-4.472;2023-04-24T12:31:01;10.93;;;2.58;;
41709;SDS011;59402;48.396;-4.472;2023-04-24T12:33:26;8.32;;;2.20;;
41709;SDS011;59402;48.396;-4.472;2023-04-24T12:35:52;7.47;;;2.00;;
41709;SDS011;59402;48.396;-4.472;2023-04-24T12:38:22;12.02;;;2.38;;
41709;SDS011;59402;48.396;-4.472;2023-04-24T12:41:01;7.10;;;2.03;;
41709;SDS011;59402;48.396;-4.472;2023-04-24T12:43:34;10.68;;;2.10;;
41709;SDS011;59402;48.396;-4.472;2023-04-24T12:46:00;13.40;;;2.28;;
41709;SDS011;59402;48.396;-4.472;2023-04-24T12:48:26;15.07;;;2.33;;
41709;SDS011;59402;48.396;-4.472;2023-04-24T12:50:52;6.30;;;1.90;;
41709;SDS011;59402;48.396;-4.472;2023-04-24T12:53:18;10.18;;;2.08;;
41709;SDS011;59402;48.396;-4.472;2023-04-24T12:55:44;10.43;;;2.30;;
41709;SDS011;59402;48.396;-4.472;2023-04-24T12:58:12;11.85;;;2.25;;
41709;SDS011;59402;48.396;-4.472;2023-04-24T13:00:38;11.93;;;2.47;;
41709;SDS011;59402;48.396;-4.472;2023-04-24T13:03:04;7.03;;;1.70;;
41709;SDS011;59402;48.396;-4.472;2023-04-24T13:05:30;9.48;;;2.40;;
41709;SDS011;59402;48.396;-4.472;2023-04-24T13:07:56;12.95;;;3.28;;
41709;SDS011;59402;48.396;-4.472;2023-04-24T13:10:22;8.80;;;2.40;;
41709;SDS011;59402;48.396;-4.472;2023-04-24T13:12:48;10.93;;;2.75;;
41709;SDS011;59402;48.396;-4.472;2023-04-24T13:15:14;9.20;;;2.08;;
41709;SDS011;59402;48.396;-4.472;2023-04-24T13:17:40;10.82;;;2.70;;
41709;SDS011;59402;48.396;-4.472;2023-04-24T13:20:06;8.65;;;2.20;;
41709;SDS011;59402;48.396;-4.472;2023-04-24T13:22:32;11.13;;;2.67;;
41709;SDS011;59402;48.396;-4.472;2023-04-24T13:24:57;10.48;;;2.13;;
41709;SDS011;59402;48.396;-4.472;2023-04-24T13:27:24;8.90;;;2.13;;
41709;SDS011;59402;48.396;-4.472;2023-04-24T13:29:50;9.63;;;2.17;;
41709;SDS011;59402;48.396;-4.472;2023-04-24T13:32:16;8.00;;;1.38;;
41709;SDS011;59402;48.396;-4.472;2023-04-24T13:34:42;10.27;;;1.95;;
41709;SDS011;59402;48.396;-4.472;2023-04-24T13:37:08;6.60;;;1.38;;
41709;SDS011;59402;48.396;-4.472;2023-04-24T13:39:34;8.20;;;2.00;;
41709;SDS011;59402;48.396;-4.472;2023-04-24T13:42:00;6.13;;;1.63;;
41709;SDS011;59402;48.396;-4.472;2023-04-24T13:44:26;4.57;;;1.20;;
41709;SDS011;59402;48.396;-4.472;2023-04-24T13:46:52;6.03;;;1.52;;
41709;SDS011;59402;48.396;-4.472;2023-04-24T13:49:21;9.02;;;1.30;;
41709;SDS011;59402;48.396;-4.472;2023-04-24T13:51:49;4.97;;;0.98;;
41709;SDS011;59402;48.396;-4.472;2023-04-24T13:54:15;6.53;;;1.45;;
41709;SDS011;59402;48.396;-4.472;2023-04-24T13:56:41;5.57;;;1.30;;
41709;SDS011;59402;48.396;-4.472;2023-04-24T13:59:07;4.93;;;1.23;;
41709;SDS011;59402;48.396;-4.472;2023-04-24T14:01:33;8.27;;;2.00;;
41709;SDS011;59402;48.396;-4.472;2023-04-24T14:03:59;4.18;;;1.20;;
41709;SDS011;59402;48.396;-4.472;2023-04-24T14:06:25;3.50;;;1.08;;
41709;SDS011;59402;48.396;-4.472;2023-04-24T14:08:51;8.25;;;1.67;;
41709;SDS011;59402;48.396;-4.472;2023-04-24T14:11:17;8.23;;;1.90;;
41709;SDS011;59402;48.396;-4.472;2023-04-24T14:13:44;7.72;;;1.98;;
41709;SDS011;59402;48.396;-4.472;2023-04-24T14:16:10;13.83;;;2.10;;
41709;SDS011;59402;48.396;-4.472;2023-04-24T14:18:36;6.72;;;1.70;;
41709;SDS011;59402;48.396;-4.472;2023-04-24T14:21:03;6.38;;;1.67;;
41709;SDS011;59402;48.396;-4.472;2023-04-24T14:23:29;5.40;;;1.77;;
41709;SDS011;59402;48.396;-4.472;2023-04-24T14:25:55;8.02;;;1.98;;
41709;SDS011;59402;48.396;-4.472;2023-04-24T14:28:21;6.93;;;1.80;;
41709;SDS011;59402;48.396;-4.472;2023-04-24T14:30:47;7.93;;;2.03;;
41709;SDS011;59402;48.396;-4.472;2023-04-24T14:33:13;10.38;;;2.50;;
41709;SDS011;59402;48.396;-4.472;2023-04-24T14:35:40;10.15;;;2.20;;
41709;SDS011;59402;48.396;-4.472;2023-04-24T14:38:07;10.43;;;2.13;;
41709;SDS011;59402;48.396;-4.472;2023-04-24T14:40:32;7.32;;;2.00;;
41709;SDS011;59402;48.396;-4.472;2023-04-24T14:42:58;11.07;;;2.63;;
41709;SDS011;59402;48.396;-4.472;2023-04-24T14:45:25;9.68;;;2.28;;